Time;durP1;ratioP1;P1;durP2;ratioP2;P2;SDS_P1;SDS_P2;PMS_P1;PMS_P2;Temp;Humidity;BMP_temperature;BMP_pressure;BME280_temperature;BME280_humidity;BME280_pressure;Samples;Min_cycle;Max_cycle;Signal;HPM_P1;HPM_P2
2021/04/30 00:00:06;;;;;;;27.33;18.27;;;7.80;99.90;;;;;;5050181;28;20040;-40
2021/04/30 00:02:31;;;;;;;20.55;14.80;;;7.90;99.90;;;;;;5051194;28;20032;-40
2021/04/30 00:04:57;;;;;;;18.70;13.98;;;7.90;99.90;;;;;;5051127;28;20033;-40
2021/04/30 00:07:22;;;;;;;19.27;14.07;;;8.00;99.90;;;;;;5050787;28;20357;-41
2021/04/30 00:09:48;;;;;;;21.00;15.23;;;8.10;99.90;;;;;;5063509;28;20028;-40
2021/04/30 00:12:13;;;;;;;19.88;13.95;;;8.20;99.90;;;;;;5070852;28;20490;-40
2021/04/30 00:14:39;;;;;;;18.52;13.23;;;8.30;99.90;;;;;;5070206;28;20071;-41
2021/04/30 00:17:05;;;;;;;16.98;13.25;;;8.30;99.90;;;;;;5070915;28;20048;-40
2021/04/30 00:19:30;;;;;;;20.80;15.23;;;8.40;99.90;;;;;;5068593;28;20028;-41
2021/04/30 00:21:56;;;;;;;19.27;13.38;;;8.40;99.90;;;;;;5050898;28;20024;-40
2021/04/30 00:24:22;;;;;;;15.68;11.40;;;8.40;99.90;;;;;;5050846;28;20056;-40
2021/04/30 00:26:48;;;;;;;14.07;10.82;;;8.50;99.90;;;;;;5051018;28;20454;-41
2021/04/30 00:29:13;;;;;;;18.40;13.18;;;8.50;99.90;;;;;;5039955;28;20025;-40
2021/04/30 00:31:40;;;;;;;17.95;14.10;;;8.40;99.90;;;;;;5031382;28;20045;-39
2021/04/30 00:34:06;;;;;;;20.15;14.27;;;8.50;99.90;;;;;;5032867;28;20041;-40
2021/04/30 00:36:32;;;;;;;19.10;13.35;;;8.50;99.90;;;;;;5032500;28;20033;-39
2021/04/30 00:38:58;;;;;;;18.15;13.38;;;8.50;99.90;;;;;;5032717;28;20045;-40
2021/04/30 00:41:24;;;;;;;21.83;14.93;;;8.50;99.90;;;;;;5032548;28;20530;-40
2021/04/30 00:43:50;;;;;;;18.65;14.05;;;8.40;99.90;;;;;;5032810;28;20029;-39
2021/04/30 00:46:15;;;;;;;20.15;14.25;;;8.40;99.90;;;;;;5043526;28;20078;-40
2021/04/30 00:48:41;;;;;;;15.25;11.40;;;8.40;99.90;;;;;;5072706;28;20028;-39
2021/04/30 00:51:06;;;;;;;16.88;11.25;;;8.40;99.90;;;;;;5066264;28;20021;-40
2021/04/30 00:53:32;;;;;;;14.77;10.70;;;8.40;99.90;;;;;;5052443;28;20029;-40
2021/04/30 00:55:58;;;;;;;12.65;9.50;;;8.30;99.90;;;;;;5052336;28;20021;-39
2021/04/30 00:58:23;;;;;;;15.00;10.55;;;8.20;99.90;;;;;;5052447;28;20169;-39
2021/04/30 01:00:49;;;;;;;17.13;11.65;;;8.20;99.90;;;;;;5051326;28;20373;-40
2021/04/30 01:03:15;;;;;;;17.20;11.13;;;8.10;99.90;;;;;;5052420;28;20024;-40
2021/04/30 01:05:41;;;;;;;14.10;10.45;;;8.10;99.90;;;;;;5052236;28;20464;-40
2021/04/30 01:08:06;;;;;;;14.40;9.82;;;8.00;99.90;;;;;;5052474;28;20484;-40
2021/04/30 01:10:33;;;;;;;14.23;10.38;;;8.00;99.90;;;;;;5052198;28;20033;-41
2021/04/30 01:12:58;;;;;;;14.70;10.23;;;7.90;99.90;;;;;;5052314;28;20033;-39
2021/04/30 01:15:25;;;;;;;16.63;10.38;;;7.90;99.90;;;;;;5051480;28;20029;-40
2021/04/30 01:17:51;;;;;;;15.15;9.45;;;7.80;99.90;;;;;;5052289;28;20029;-40
2021/04/30 01:20:20;;;;;;;13.70;9.73;;;7.80;99.90;;;;;;5052078;28;20093;-40
2021/04/30 01:22:51;;;;;;;14.48;10.50;;;7.80;99.90;;;;;;5052203;28;20017;-41
2021/04/30 01:25:19;;;;;;;12.48;9.23;;;7.80;99.90;;;;;;5052287;28;20024;-40
2021/04/30 01:27:45;;;;;;;12.98;10.07;;;7.80;99.90;;;;;;5052200;28;20060;-40
2021/04/30 01:30:14;;;;;;;11.15;7.78;;;7.80;99.90;;;;;;5051303;28;20061;-39
2021/04/30 01:32:40;;;;;;;11.32;9.30;;;7.90;99.90;;;;;;5052004;28;20033;-40
2021/04/30 01:35:07;;;;;;;13.52;10.07;;;7.90;99.90;;;;;;5052256;28;20029;-39
2021/04/30 01:37:33;;;;;;;12.98;8.68;;;8.00;99.90;;;;;;5051789;28;20021;-39
2021/04/30 01:39:58;;;;;;;11.90;8.32;;;8.00;99.90;;;;;;5051856;28;20049;-39
2021/04/30 01:42:24;;;;;;;13.40;9.57;;;8.00;99.90;;;;;;5053031;28;20029;-39
2021/04/30 01:44:50;;;;;;;13.68;8.60;;;8.10;99.90;;;;;;5054913;28;20024;-40
2021/04/30 01:47:17;;;;;;;13.35;9.75;;;8.10;99.90;;;;;;5069807;28;20024;-40
2021/04/30 01:49:43;;;;;;;14.88;10.93;;;8.20;99.90;;;;;;5075729;28;20025;-39
2021/04/30 01:52:09;;;;;;;13.38;10.30;;;8.20;99.90;;;;;;5060701;28;20384;-39
2021/04/30 01:54:34;;;;;;;14.77;10.43;;;8.20;99.90;;;;;;5055643;28;20029;-39
2021/04/30 01:57:00;;;;;;;15.45;11.30;;;8.20;99.90;;;;;;5055507;28;20025;-40
2021/04/30 01:59:25;;;;;;;15.00;11.15;;;8.20;99.90;;;;;;5055462;28;20515;-40
2021/04/30 02:01:51;;;;;;;14.07;10.35;;;8.20;99.90;;;;;;5054439;28;20461;-40
2021/04/30 02:04:16;;;;;;;14.65;10.98;;;8.20;99.90;;;;;;5055521;28;20032;-39
2021/04/30 02:06:44;;;;;;;14.23;10.43;;;8.20;99.90;;;;;;5055133;28;20029;-40
2021/04/30 02:09:10;;;;;;;14.38;10.00;;;8.10;99.90;;;;;;5055368;28;20053;-39
2021/04/30 02:11:36;;;;;;;14.50;10.30;;;8.20;99.90;;;;;;5055172;28;20064;-40
2021/04/30 02:14:03;;;;;;;15.80;10.20;;;8.20;99.90;;;;;;5055319;28;20029;-40
2021/04/30 02:16:30;;;;;;;13.90;9.65;;;8.10;99.90;;;;;;5054184;28;20024;-40
2021/04/30 02:18:56;;;;;;;14.65;10.88;;;8.10;99.90;;;;;;5055253;28;20079;-40
2021/04/30 02:21:21;;;;;;;11.30;8.80;;;8.10;99.90;;;;;;5054885;28;20383;-39
2021/04/30 02:23:47;;;;;;;13.25;9.60;;;8.10;99.90;;;;;;5054935;28;20025;-40
2021/04/30 02:26:15;;;;;;;13.27;10.10;;;8.20;99.90;;;;;;5053808;28;20031;-41
2021/04/30 02:28:42;;;;;;;14.65;10.27;;;8.10;99.90;;;;;;5054857;28;20036;-39
2021/04/30 02:31:08;;;;;;;14.95;10.73;;;8.20;99.90;;;;;;5054161;28;20040;-39
2021/04/30 02:33:34;;;;;;;11.90;9.13;;;8.20;99.90;;;;;;5054709;28;20021;-40
2021/04/30 02:35:59;;;;;;;13.15;10.00;;;8.20;99.90;;;;;;5054775;28;20028;-40
2021/04/30 02:38:25;;;;;;;12.45;8.73;;;8.20;99.90;;;;;;5053336;28;20029;-40
2021/04/30 02:40:52;;;;;;;15.07;9.43;;;8.20;99.90;;;;;;5054602;28;20072;-40
2021/04/30 02:43:20;;;;;;;11.98;8.95;;;8.20;99.90;;;;;;5054721;28;20025;-39
2021/04/30 02:45:51;;;;;;;13.88;9.93;;;8.20;99.90;;;;;;5055551;28;20029;-42
2021/04/30 02:48:24;;;;;;;12.27;8.40;;;8.30;99.90;;;;;;5074656;28;20036;-39
2021/04/30 02:50:50;;;;;;;9.60;7.57;;;8.20;99.90;;;;;;5070724;28;20032;-40
2021/04/30 02:53:16;;;;;;;11.60;8.65;;;8.30;99.90;;;;;;5054333;28;20033;-39
2021/04/30 02:55:41;;;;;;;10.45;8.05;;;8.30;99.90;;;;;;5054517;28;20060;-40
2021/04/30 02:58:07;;;;;;;11.60;8.90;;;8.30;99.90;;;;;;5054401;28;20029;-40
2021/04/30 03:00:33;;;;;;;12.05;9.63;;;8.30;99.90;;;;;;5053422;28;20068;-39
2021/04/30 03:03:00;;;;;;;11.68;9.43;;;8.40;99.90;;;;;;5054193;28;20025;-41
2021/04/30 03:05:25;;;;;;;13.43;10.20;;;8.40;99.90;;;;;;5054474;28;20021;-40
2021/04/30 03:07:51;;;;;;;13.05;9.10;;;8.30;99.90;;;;;;5054039;28;20017;-39
2021/04/30 03:10:17;;;;;;;12.75;8.68;;;8.30;99.90;;;;;;5054184;28;20468;-40
2021/04/30 03:12:43;;;;;;;13.57;8.45;;;8.30;99.90;;;;;;5054111;28;20032;-39
2021/04/30 03:15:12;;;;;;;11.85;8.57;;;8.40;99.90;;;;;;5053280;28;20033;-41
2021/04/30 03:17:38;;;;;;;11.63;9.52;;;8.30;99.90;;;;;;5053894;28;20066;-40
2021/04/30 03:20:04;;;;;;;12.35;8.23;;;8.30;99.90;;;;;;5054058;28;20469;-39
2021/04/30 03:22:29;;;;;;;11.77;8.88;;;8.30;99.90;;;;;;5053788;28;20076;-39
2021/04/30 03:24:55;;;;;;;11.70;8.98;;;8.30;99.90;;;;;;5053862;28;20025;-39
2021/04/30 03:27:20;;;;;;;11.07;7.40;;;8.30;99.90;;;;;;5053892;28;20025;-39
2021/04/30 03:29:46;;;;;;;11.23;7.88;;;8.30;99.90;;;;;;5052922;28;20028;-40
2021/04/30 03:32:11;;;;;;;13.95;10.32;;;8.30;99.90;;;;;;5053672;28;20384;-41
2021/04/30 03:34:37;;;;;;;12.70;9.43;;;8.30;99.90;;;;;;5053449;28;20063;-39
2021/04/30 03:37:04;;;;;;;11.15;8.38;;;8.30;99.90;;;;;;5053796;28;20028;-40
2021/04/30 03:39:29;;;;;;;14.02;8.07;;;8.30;99.90;;;;;;5052894;28;20496;-39
2021/04/30 03:41:55;;;;;;;9.73;7.43;;;8.30;99.90;;;;;;5053590;28;20036;-39
2021/04/30 03:44:20;;;;;;;12.98;7.75;;;8.30;99.90;;;;;;5053336;28;20025;-40
2021/04/30 03:46:46;;;;;;;8.38;7.00;;;8.30;99.90;;;;;;5062787;28;20017;-39
2021/04/30 03:49:11;;;;;;;9.02;7.03;;;8.30;99.90;;;;;;5073260;28;20063;-39
2021/04/30 03:51:37;;;;;;;10.73;7.65;;;8.20;99.90;;;;;;5063037;28;20032;-41
2021/04/30 03:54:03;;;;;;;11.50;9.60;;;8.30;99.90;;;;;;5053022;28;20472;-43
2021/04/30 03:56:28;;;;;;;9.77;8.13;;;8.20;99.90;;;;;;5053375;28;20036;-39
2021/04/30 03:58:54;;;;;;;9.23;6.93;;;8.30;99.90;;;;;;5053155;28;20029;-40
2021/04/30 04:01:19;;;;;;;9.52;7.88;;;8.20;99.90;;;;;;5052218;28;20033;-41
2021/04/30 04:03:45;;;;;;;9.45;7.60;;;8.20;99.90;;;;;;5053048;28;20037;-42
2021/04/30 04:06:10;;;;;;;8.88;6.93;;;8.10;99.90;;;;;;5052763;28;20119;-39
2021/04/30 04:08:36;;;;;;;8.23;6.10;;;8.10;99.90;;;;;;5053053;28;20358;-41
2021/04/30 04:11:01;;;;;;;8.52;5.63;;;8.10;99.90;;;;;;5052985;28;20037;-39
2021/04/30 04:13:27;;;;;;;7.75;5.38;;;8.10;99.90;;;;;;5053006;28;20067;-41
2021/04/30 04:15:54;;;;;;;9.23;7.63;;;8.10;99.90;;;;;;5052077;28;20017;-41
2021/04/30 04:18:23;;;;;;;9.07;6.45;;;8.10;99.90;;;;;;5052639;28;20028;-40
2021/04/30 04:20:49;;;;;;;10.93;7.05;;;8.00;99.90;;;;;;5052862;28;20306;-40
2021/04/30 04:23:14;;;;;;;8.18;6.53;;;8.10;99.90;;;;;;5052862;28;20480;-40
2021/04/30 04:25:40;;;;;;;8.40;6.10;;;8.10;99.90;;;;;;5052817;28;20036;-40
2021/04/30 04:28:06;;;;;;;6.70;5.40;;;8.10;99.90;;;;;;5052781;28;20064;-40
2021/04/30 04:30:32;;;;;;;7.13;5.70;;;8.10;99.90;;;;;;5051888;28;20090;-40
2021/04/30 04:32:58;;;;;;;9.07;6.28;;;8.10;99.90;;;;;;5052565;28;20582;-40
2021/04/30 04:35:24;;;;;;;8.25;5.80;;;8.10;99.90;;;;;;5052883;28;20040;-39
2021/04/30 04:37:49;;;;;;;9.90;7.97;;;8.20;99.90;;;;;;5052744;28;20028;-40
2021/04/30 04:40:16;;;;;;;7.75;6.22;;;8.20;99.90;;;;;;5051029;28;20045;-40
2021/04/30 04:42:42;;;;;;;7.55;6.10;;;8.20;99.90;;;;;;5052635;28;20465;-39
2021/04/30 04:45:09;;;;;;;12.00;7.63;;;8.20;99.90;;;;;;5051621;28;20031;-40
2021/04/30 04:47:34;;;;;;;10.48;8.32;;;8.20;99.90;;;;;;5069453;28;20063;-41
2021/04/30 04:50:00;;;;;;;9.25;7.35;;;8.20;99.90;;;;;;5072555;28;20460;-41
2021/04/30 04:52:25;;;;;;;9.98;6.85;;;8.20;99.90;;;;;;5055527;28;20028;-39
2021/04/30 04:54:51;;;;;;;10.25;7.40;;;8.20;99.90;;;;;;5052290;28;20029;-44
2021/04/30 04:57:17;;;;;;;10.15;6.93;;;8.20;99.90;;;;;;5052581;28;20037;-41
2021/04/30 04:59:42;;;;;;;11.40;8.27;;;8.20;99.90;;;;;;5051271;28;20419;-40
2021/04/30 05:02:08;;;;;;;9.52;7.68;;;8.30;99.90;;;;;;5052352;28;20438;-39
2021/04/30 05:04:33;;;;;;;9.27;6.75;;;8.30;99.90;;;;;;5052448;28;20050;-41
2021/04/30 05:06:59;;;;;;;9.80;7.75;;;8.30;99.90;;;;;;5052431;28;20107;-39
2021/04/30 05:09:27;;;;;;;10.13;7.85;;;8.30;99.90;;;;;;5052309;28;20100;-40
2021/04/30 05:11:52;;;;;;;9.80;7.57;;;8.30;99.90;;;;;;5052166;28;20467;-41
2021/04/30 05:14:18;;;;;;;9.82;7.45;;;8.30;99.90;;;;;;5052277;28;20064;-40
2021/04/30 05:16:44;;;;;;;10.55;7.88;;;8.30;99.90;;;;;;5051307;28;20074;-40
2021/04/30 05:19:09;;;;;;;8.65;6.70;;;8.40;99.90;;;;;;5056358;28;20472;-39
2021/04/30 05:21:36;;;;;;;9.73;7.00;;;8.40;99.90;;;;;;5056185;28;20490;-40
2021/04/30 05:24:02;;;;;;;10.25;7.70;;;8.50;99.90;;;;;;5056050;28;20388;-40
2021/04/30 05:26:29;;;;;;;11.00;8.48;;;8.50;99.90;;;;;;5056151;28;20021;-40
2021/04/30 05:28:56;;;;;;;11.23;9.20;;;8.60;99.90;;;;;;5071458;22;20056;-40
2021/04/30 05:31:22;;;;;;;11.13;9.35;;;8.70;99.90;;;;;;5055024;28;20024;-40
2021/04/30 05:33:47;;;;;;;9.70;7.57;;;8.70;99.90;;;;;;5055898;28;20032;-39
2021/04/30 05:36:13;;;;;;;10.40;7.60;;;8.80;99.90;;;;;;5054619;28;20379;-40
2021/04/30 05:38:38;;;;;;;9.70;7.65;;;8.80;99.90;;;;;;5044517;28;20108;-41
2021/04/30 05:41:04;;;;;;;8.43;6.97;;;8.90;99.90;;;;;;5062578;28;20029;-40
2021/04/30 05:43:29;;;;;;;9.65;7.30;;;8.90;99.90;;;;;;5054137;28;20033;-40
2021/04/30 05:45:55;;;;;;;8.15;6.57;;;8.90;99.90;;;;;;5046189;28;20081;-39
2021/04/30 05:48:20;;;;;;;9.20;7.10;;;8.90;99.90;;;;;;5054054;28;20037;-41
2021/04/30 05:50:46;;;;;;;8.68;6.80;;;8.90;99.90;;;;;;5053878;28;20040;-40
2021/04/30 05:53:11;;;;;;;7.78;6.28;;;8.90;99.90;;;;;;5054109;28;20033;-39
2021/04/30 05:55:37;;;;;;;9.60;6.45;;;8.80;99.90;;;;;;5067237;28;20060;-39
2021/04/30 05:58:02;;;;;;;7.85;6.15;;;8.80;99.90;;;;;;5073676;28;20032;-40
2021/04/30 06:00:28;;;;;;;7.43;6.03;;;8.80;99.90;;;;;;5072403;28;20103;-40
2021/04/30 06:02:54;;;;;;;7.28;5.68;;;8.80;99.90;;;;;;5073583;28;20388;-39
2021/04/30 06:05:20;;;;;;;7.28;6.13;;;8.80;99.90;;;;;;5073572;28;20044;-40
2021/04/30 06:07:45;;;;;;;7.85;5.80;;;8.80;99.90;;;;;;5073661;28;20028;-40
2021/04/30 06:10:11;;;;;;;8.15;6.20;;;8.80;99.90;;;;;;5073330;28;20033;-40
2021/04/30 06:12:37;;;;;;;10.48;5.65;;;8.80;99.90;;;;;;5054366;28;20025;-39
2021/04/30 06:15:03;;;;;;;6.80;5.78;;;8.80;99.90;;;;;;5052222;28;20033;-40
2021/04/30 06:17:28;;;;;;;9.35;6.75;;;8.80;99.90;;;;;;5053598;28;20445;-40
2021/04/30 06:19:54;;;;;;;8.18;6.65;;;8.80;99.90;;;;;;5053205;28;21984;-39
2021/04/30 06:22:19;;;;;;;6.30;5.47;;;8.70;99.90;;;;;;5062669;28;20028;-39
2021/04/30 06:24:45;;;;;;;6.55;5.40;;;8.70;99.90;;;;;;5073022;28;20052;-40
2021/04/30 06:27:11;;;;;;;6.43;5.40;;;8.70;99.90;;;;;;5073189;28;20024;-39
2021/04/30 06:29:36;;;;;;;6.75;5.07;;;8.70;99.90;;;;;;5071453;28;20053;-40
2021/04/30 06:32:02;;;;;;;6.25;5.07;;;8.70;99.90;;;;;;5073059;28;20420;-40
2021/04/30 06:34:27;;;;;;;6.22;5.25;;;8.60;99.90;;;;;;5072983;28;20032;-40
2021/04/30 06:36:54;;;;;;;6.72;5.18;;;8.60;99.90;;;;;;5073105;28;20025;-39
2021/04/30 06:39:23;;;;;;;5.35;4.32;;;8.70;99.90;;;;;;5051808;28;20531;-41
2021/04/30 06:41:48;;;;;;;6.53;4.60;;;8.60;99.90;;;;;;5072921;28;20058;-39
2021/04/30 06:44:14;;;;;;;6.25;4.55;;;8.60;99.90;;;;;;5072651;28;20032;-40
2021/04/30 06:46:40;;;;;;;9.55;4.93;;;8.70;99.90;;;;;;5072061;28;20037;-39
2021/04/30 06:49:06;;;;;;;5.53;4.55;;;8.70;99.90;;;;;;5072630;28;20066;-40
2021/04/30 06:51:32;;;;;;;5.60;4.15;;;8.70;99.90;;;;;;5063306;28;20032;-40
2021/04/30 06:53:57;;;;;;;4.80;4.13;;;8.70;99.90;;;;;;5052675;28;20451;-40
2021/04/30 06:56:25;;;;;;;5.53;4.53;;;8.70;99.90;;;;;;5053490;28;20021;-41
2021/04/30 06:58:51;;;;;;;6.35;3.97;;;8.70;99.90;;;;;;5051980;28;20389;-40
2021/04/30 07:01:17;;;;;;;4.72;3.38;;;8.70;99.90;;;;;;5052476;28;20104;-41
2021/04/30 07:03:46;;;;;;;6.00;4.03;;;8.70;99.90;;;;;;5054222;28;20105;-39
2021/04/30 07:06:12;;;;;;;5.03;3.70;;;8.70;99.90;;;;;;5053953;28;20017;-40
2021/04/30 07:08:37;;;;;;;4.20;3.58;;;8.70;99.90;;;;;;5054283;28;20496;-40
2021/04/30 07:11:03;;;;;;;5.20;3.03;;;8.70;99.90;;;;;;5053821;28;20048;-40
2021/04/30 07:13:28;;;;;;;3.42;2.92;;;8.70;99.90;;;;;;5053968;28;20112;-40
2021/04/30 07:15:54;;;;;;;3.88;2.90;;;8.70;99.90;;;;;;5053292;28;20504;-39
2021/04/30 07:18:19;;;;;;;3.65;2.20;;;8.80;99.90;;;;;;5054220;28;20028;-39
2021/04/30 07:20:46;;;;;;;4.68;1.92;;;8.90;99.90;;;;;;5053690;28;20029;-40
2021/04/30 07:23:12;;;;;;;4.80;2.10;;;9.00;99.90;;;;;;5053993;28;20029;-39
2021/04/30 07:25:38;;;;;;;3.65;1.83;;;9.20;99.90;;;;;;5053867;28;20029;-39
2021/04/30 07:28:04;;;;;;;2.85;1.67;;;9.40;99.90;;;;;;5053710;28;20021;-39
2021/04/30 07:30:30;;;;;;;2.20;1.55;;;9.80;99.90;;;;;;5052449;28;20075;-40
2021/04/30 07:32:55;;;;;;;2.88;1.50;;;10.80;97.30;;;;;;5053741;28;20029;-40
2021/04/30 07:35:21;;;;;;;2.03;1.40;;;11.40;94.50;;;;;;5053863;28;20039;-39
2021/04/30 07:37:46;;;;;;;5.60;1.33;;;11.40;90.00;;;;;;5057066;28;20180;-39
2021/04/30 07:40:12;;;;;;;1.88;1.30;;;11.30;91.80;;;;;;5072366;28;20036;-39
2021/04/30 07:42:38;;;;;;;1.77;1.20;;;11.30;91.50;;;;;;5073516;28;20023;-39
2021/04/30 07:45:04;;;;;;;10.32;2.80;;;11.30;91.60;;;;;;5072536;28;20021;-39
2021/04/30 07:47:30;;;;;;;5.55;1.90;;;11.30;91.00;;;;;;5073393;28;20487;-39
2021/04/30 07:49:56;;;;;;;2.38;1.40;;;11.40;91.20;;;;;;5064071;28;20013;-39
2021/04/30 07:52:22;;;;;;;1.92;1.30;;;11.20;90.00;;;;;;5052762;28;20028;-39
2021/04/30 07:54:47;;;;;;;4.30;1.77;;;11.10;90.50;;;;;;5052976;28;20028;-39
2021/04/30 07:57:13;;;;;;;2.42;1.75;;;10.90;90.60;;;;;;5052856;28;20404;-39
2021/04/30 07:59:38;;;;;;;3.42;1.40;;;10.90;90.70;;;;;;5052216;28;20108;-39
2021/04/30 08:02:04;;;;;;;5.97;1.50;;;10.90;90.60;;;;;;5052612;28;20106;-40
2021/04/30 08:04:30;;;;;;;1.98;1.33;;;10.90;90.80;;;;;;5053157;28;20571;-39
2021/04/30 08:06:55;;;;;;;2.80;1.42;;;10.90;90.80;;;;;;5052969;28;20033;-39
2021/04/30 08:09:21;;;;;;;2.42;1.30;;;10.90;90.40;;;;;;5052970;28;20124;-39
2021/04/30 08:11:47;;;;;;;3.83;1.23;;;11.10;90.90;;;;;;5052511;28;20054;-39
2021/04/30 08:14:13;;;;;;;7.95;1.95;;;11.30;90.30;;;;;;5052650;28;20159;-39
2021/04/30 08:16:38;;;;;;;1.48;1.38;;;11.50;90.00;;;;;;5051964;28;20453;-39
2021/04/30 08:19:05;;;;;;;4.00;1.40;;;11.60;89.70;;;;;;5052734;28;20071;-39
2021/04/30 08:21:30;;;;;;;2.28;1.50;;;11.80;88.90;;;;;;5052399;28;20029;-39
2021/04/30 08:23:56;;;;;;;2.45;1.40;;;11.70;88.20;;;;;;5052764;28;20518;-40
2021/04/30 08:26:22;;;;;;;2.38;1.77;;;11.60;87.50;;;;;;5052336;28;20024;-43
2021/04/30 08:28:49;;;;;;;1.88;1.42;;;11.50;87.10;;;;;;5052544;28;20040;-40
2021/04/30 08:31:14;;;;;;;1.67;1.35;;;11.30;87.50;;;;;;5053529;28;20070;-41
2021/04/30 08:33:40;;;;;;;3.58;1.27;;;11.20;88.90;;;;;;5072353;28;20028;-47
2021/04/30 08:36:06;;;;;;;1.65;1.40;;;11.10;88.70;;;;;;5072094;28;20086;-42
2021/04/30 08:38:31;;;;;;;3.50;1.88;;;10.90;89.10;;;;;;5072567;28;20388;-40
2021/04/30 08:41:00;;;;;;;3.75;2.28;;;10.80;88.40;;;;;;5072129;28;20025;-43
2021/04/30 08:43:26;;;;;;;3.40;1.73;;;10.70;87.70;;;;;;5072479;28;20480;-42
2021/04/30 08:45:54;;;;;;;3.00;1.48;;;10.60;88.80;;;;;;5070914;28;20039;-40
2021/04/30 08:48:24;;;;;;;2.28;1.52;;;10.50;89.40;;;;;;5039077;28;20473;-41
2021/04/30 08:50:50;;;;;;;2.50;1.65;;;10.50;89.90;;;;;;5035926;28;20029;-40
2021/04/30 08:53:16;;;;;;;2.97;1.80;;;10.60;89.60;;;;;;5052015;28;20036;-43
2021/04/30 08:55:41;;;;;;;2.60;2.00;;;10.70;89.60;;;;;;5052110;28;20029;-41
2021/04/30 08:58:09;;;;;;;1.75;1.52;;;10.70;89.40;;;;;;5052107;28;20108;-41
2021/04/30 09:00:35;;;;;;;3.00;1.65;;;10.80;89.50;;;;;;5051073;28;20545;-45
2021/04/30 09:03:01;;;;;;;4.68;2.00;;;10.70;90.00;;;;;;5052084;28;20021;-41
2021/04/30 09:05:31;;;;;;;6.28;2.00;;;10.70;90.10;;;;;;5052244;28;20017;-40
2021/04/30 09:08:00;;;;;;;3.45;1.80;;;10.60;90.20;;;;;;5052248;28;20465;-41
2021/04/30 09:10:35;;;;;;;2.92;1.65;;;10.60;90.30;;;;;;5052171;28;20037;-42
2021/04/30 09:13:09;;;;;;;1.88;1.58;;;10.50;90.50;;;;;;5051955;28;20033;-43
2021/04/30 09:15:36;;;;;;;4.85;1.50;;;10.50;90.50;;;;;;5051281;28;20381;-42
2021/04/30 09:18:23;;;;;;;2.78;1.80;;;10.60;90.50;;;;;;5052079;28;20029;-40
2021/04/30 09:20:51;;;;;;;1.58;1.30;;;10.60;90.40;;;;;;5052075;28;20389;-41
2021/04/30 09:23:30;;;;;;;2.55;1.95;;;10.70;90.40;;;;;;5051896;28;20376;-41
2021/04/30 09:25:55;;;;;;;1.80;1.40;;;10.80;89.90;;;;;;5054547;28;20060;-40
2021/04/30 09:28:21;;;;;;;4.72;1.92;;;11.10;90.00;;;;;;5051747;28;20033;-44
2021/04/30 09:30:47;;;;;;;3.65;1.85;;;11.60;88.90;;;;;;5051219;28;20426;-43
2021/04/30 09:33:26;;;;;;;3.35;1.67;;;11.90;87.30;;;;;;5051500;28;20360;-44
2021/04/30 09:35:56;;;;;;;4.03;1.77;;;12.00;86.30;;;;;;5052405;28;20021;-39
2021/04/30 09:38:25;;;;;;;2.83;1.85;;;11.90;86.00;;;;;;5051673;28;20485;-41
2021/04/30 09:41:09;;;;;;;3.70;2.17;;;12.00;86.20;;;;;;5051935;28;20052;-40
2021/04/30 09:43:47;;;;;;;5.28;1.95;;;12.20;85.00;;;;;;5051577;28;20083;-43
2021/04/30 09:46:29;;;;;;;2.20;1.77;;;12.50;83.80;;;;;;5050685;28;20028;-44
2021/04/30 09:49:03;;;;;;;2.72;1.85;;;12.70;83.90;;;;;;5051585;28;20056;-42
2021/04/30 09:51:52;;;;;;;3.17;1.90;;;12.80;84.00;;;;;;5051623;28;20037;-43
2021/04/30 09:54:23;;;;;;;4.40;2.00;;;13.00;83.10;;;;;;5051771;28;20033;-42
2021/04/30 09:57:02;;;;;;;2.92;2.03;;;12.90;82.20;;;;;;5051830;28;20112;-42
2021/04/30 09:59:28;;;;;;;2.88;1.80;;;12.90;81.50;;;;;;5050682;28;20415;-40
2021/04/30 10:02:07;;;;;;;3.35;2.30;;;12.80;82.30;;;;;;5051440;28;20029;-41
2021/04/30 10:04:34;;;;;;;3.55;2.75;;;12.70;81.40;;;;;;5054421;28;20025;-47
2021/04/30 10:07:02;;;;;;;3.80;2.10;;;12.50;81.30;;;;;;5056886;28;20021;-42
2021/04/30 10:09:29;;;;;;;2.72;1.65;;;12.20;81.80;;;;;;5055498;28;20025;-42
2021/04/30 10:11:55;;;;;;;2.20;1.90;;;12.10;82.00;;;;;;5055102;28;20144;-42
2021/04/30 10:14:23;;;;;;;3.50;2.30;;;11.90;80.20;;;;;;5054187;28;20201;-41
2021/04/30 10:16:48;;;;;;;4.00;2.20;;;12.00;81.50;;;;;;5054913;28;20605;-41
2021/04/30 10:19:14;;;;;;;3.08;2.00;;;12.00;80.70;;;;;;5054943;28;20104;-43
2021/04/30 10:21:41;;;;;;;2.70;2.00;;;12.00;80.80;;;;;;5054979;28;20025;-41
2021/04/30 10:24:12;;;;;;;3.85;2.00;;;12.20;80.40;;;;;;5054970;28;20029;-40
2021/04/30 10:26:38;;;;;;;2.75;2.05;;;12.50;80.30;;;;;;5055111;28;20415;-45
2021/04/30 10:29:08;;;;;;;2.50;1.77;;;12.60;79.10;;;;;;5054748;28;20082;-43
2021/04/30 10:31:37;;;;;;;2.58;2.22;;;12.70;78.70;;;;;;5053675;28;20132;-40
2021/04/30 10:34:11;;;;;;;2.50;1.85;;;12.80;78.90;;;;;;5054626;28;20052;-41
2021/04/30 10:36:45;;;;;;;5.10;1.92;;;12.80;79.00;;;;;;5054627;28;20544;-43
2021/04/30 10:39:24;;;;;;;3.30;1.70;;;12.90;78.50;;;;;;5058762;28;20055;-42
2021/04/30 10:41:50;;;;;;;6.07;2.13;;;13.00;77.20;;;;;;5054455;28;20435;-45
2021/04/30 10:44:31;;;;;;;4.18;2.08;;;13.30;78.50;;;;;;5052608;28;20414;-40
2021/04/30 10:47:11;;;;;;;2.63;1.92;;;13.60;75.80;;;;;;5054530;28;20025;-41
2021/04/30 10:49:38;;;;;;;3.13;2.20;;;13.90;75.80;;;;;;5054423;28;20512;-41
2021/04/30 10:52:07;;;;;;;2.92;1.90;;;14.10;76.10;;;;;;5054290;28;20476;-44
2021/04/30 10:54:56;;;;;;;10.85;2.42;;;14.20;75.50;;;;;;5054215;28;20024;-41
2021/04/30 10:57:22;;;;;;;2.65;1.95;;;14.30;74.20;;;;;;5039784;28;20041;-41
2021/04/30 10:59:52;;;;;;;2.45;2.03;;;14.40;73.50;;;;;;5053335;28;20099;-42
2021/04/30 11:02:28;;;;;;;2.25;1.45;;;14.50;73.40;;;;;;5054041;28;20032;-42
2021/04/30 11:05:12;;;;;;;3.92;1.88;;;14.70;72.90;;;;;;5054002;28;20027;-41
2021/04/30 11:07:38;;;;;;;1.95;1.75;;;14.80;72.10;;;;;;5054092;28;20021;-42
2021/04/30 11:10:30;;;;;;;2.00;1.73;;;14.80;72.70;;;;;;5054209;28;20655;-40
2021/04/30 11:13:01;;;;;;;2.53;2.17;;;14.70;70.30;;;;;;5054008;28;20025;-39
2021/04/30 11:15:44;;;;;;;4.05;1.77;;;14.30;73.20;;;;;;5051782;28;20432;-41
2021/04/30 11:18:11;;;;;;;3.60;1.95;;;14.10;71.80;;;;;;5053809;28;20021;-40
2021/04/30 11:20:37;;;;;;;3.65;1.73;;;13.80;73.80;;;;;;5053851;28;20052;-40
2021/04/30 11:23:29;;;;;;;3.80;1.88;;;13.50;74.20;;;;;;5052506;28;20116;-44
2021/04/30 11:25:57;;;;;;;3.55;1.95;;;13.30;73.20;;;;;;5053716;28;20032;-42
2021/04/30 11:28:43;;;;;;;2.25;1.45;;;13.20;74.50;;;;;;5053350;28;20541;-42
2021/04/30 11:31:09;;;;;;;2.83;1.90;;;13.00;73.80;;;;;;5038908;28;20456;-44
2021/04/30 11:33:38;;;;;;;3.22;2.15;;;13.00;74.80;;;;;;5053386;28;20094;-41
2021/04/30 11:36:05;;;;;;;3.75;2.17;;;12.90;75.20;;;;;;5053637;28;20028;-42
2021/04/30 11:38:35;;;;;;;1.67;1.48;;;12.70;74.40;;;;;;5053187;28;20136;-41
2021/04/30 11:41:01;;;;;;;3.45;2.13;;;12.50;75.50;;;;;;5053502;28;20139;-44
2021/04/30 11:43:27;;;;;;;2.55;2.08;;;12.40;75.30;;;;;;5052051;28;20411;-45
2021/04/30 11:45:54;;;;;;;3.15;2.25;;;12.30;76.00;;;;;;5052642;28;20024;-40
2021/04/30 11:48:24;;;;;;;6.22;2.25;;;12.10;76.10;;;;;;5053310;28;20064;-44
2021/04/30 11:51:18;;;;;;;2.97;2.28;;;12.00;76.40;;;;;;5053096;28;20025;-42
2021/04/30 11:53:58;;;;;;;1.77;1.67;;;11.90;76.00;;;;;;5036077;28;20381;-41
2021/04/30 11:56:30;;;;;;;2.05;1.85;;;11.90;76.70;;;;;;5053298;28;20051;-41
2021/04/30 11:58:56;;;;;;;2.00;1.77;;;11.90;77.10;;;;;;5053236;28;20025;-41
2021/04/30 12:01:23;;;;;;;2.20;1.80;;;11.90;77.00;;;;;;5051946;28;20111;-42
2021/04/30 12:03:54;;;;;;;5.35;3.00;;;11.90;76.90;;;;;;5053004;28;20017;-44
2021/04/30 12:06:24;;;;;;;2.63;1.80;;;11.90;76.00;;;;;;5053017;28;20021;-41
2021/04/30 12:08:51;;;;;;;3.90;2.72;;;11.80;76.50;;;;;;5053000;28;20017;-46
2021/04/30 12:11:34;;;;;;;4.75;2.90;;;11.80;76.20;;;;;;5058463;28;20125;-47
2021/04/30 12:14:04;;;;;;;4.15;3.28;;;11.90;75.60;;;;;;5052596;28;20032;-43
2021/04/30 12:16:30;;;;;;;4.25;2.83;;;12.00;76.30;;;;;;5051881;28;20185;-46
2021/04/30 12:19:01;;;;;;;3.70;3.08;;;12.00;76.20;;;;;;5054922;28;20428;-46
2021/04/30 12:21:35;;;;;;;4.15;2.60;;;12.00;75.90;;;;;;5052490;28;20472;-43
2021/04/30 12:24:04;;;;;;;3.08;2.55;;;11.90;76.20;;;;;;5052659;28;20424;-44
2021/04/30 12:26:35;;;;;;;4.57;3.00;;;12.00;76.50;;;;;;5052257;28;20025;-43
2021/04/30 12:29:06;;;;;;;4.32;2.67;;;12.00;76.40;;;;;;5052502;28;20049;-45
2021/04/30 12:31:31;;;;;;;5.40;2.72;;;12.00;76.40;;;;;;5051743;28;20032;-44
2021/04/30 12:33:57;;;;;;;3.35;2.47;;;11.90;76.50;;;;;;5052470;28;20029;-46
2021/04/30 12:36:28;;;;;;;3.55;2.50;;;11.90;76.80;;;;;;5052495;28;20032;-44
2021/04/30 12:39:04;;;;;;;3.67;2.67;;;11.90;76.90;;;;;;5052102;28;20109;-44
2021/04/30 12:41:31;;;;;;;;;;;11.90;77.10;;;;;;5052708;28;20017;-42
2021/04/30 12:44:08;;;;;;;3.97;2.53;;;11.90;76.90;;;;;;5051167;28;19990;-47
2021/04/30 12:46:41;;;;;;;3.00;2.40;;;11.90;77.20;;;;;;5050122;28;20021;-44
2021/04/30 12:49:12;;;;;;;3.35;2.60;;;11.90;77.30;;;;;;5048715;28;20029;-46